Time;durP1;ratioP1;P1;durP2;ratioP2;P2;SDS_P1;SDS_P2;PMS_P1;PMS_P2;Temp;Humidity;BMP_temperature;BMP_pressure;BME280_temperature;BME280_humidity;BME280_pressure;Samples;Min_cycle;Max_cycle;Signal;HPM_P1;HPM_P2
2022/11/02 04:52:27;;;;;;;22.50;11.12;;;;;;;10.01;100.00;101043.13;5611755;28;20094;-86
2022/11/02 04:55:30;;;;;;;20.50;10.45;;;;;;;9.99;100.00;101040.56;5209731;34;32775;-86
2022/11/02 04:58:33;;;;;;;26.33;12.80;;;;;;;10.01;100.00;101043.13;5222078;34;34317;-86
2022/11/02 05:01:37;;;;;;;25.10;10.93;;;;;;;10.09;100.00;101044.03;5222561;34;34817;-87
2022/11/02 05:04:40;;;;;;;21.67;11.50;;;;;;;10.10;100.00;101052.94;5228861;34;34718;-87
2022/11/02 05:07:43;;;;;;;23.30;11.43;;;;;;;10.13;100.00;101052.62;5224471;34;34053;-87
2022/11/02 05:10:46;;;;;;;22.48;11.98;;;;;;;10.17;100.00;101054.81;5221961;34;34522;-86
2022/11/02 05:13:49;;;;;;;21.90;11.82;;;;;;;10.18;100.00;101055.69;5222715;34;34118;-86
2022/11/02 05:16:52;;;;;;;24.83;12.40;;;;;;;10.17;100.00;101057.50;5227973;34;34062;-86
2022/11/02 05:19:55;;;;;;;21.33;11.25;;;;;;;10.19;100.00;101058.19;5226330;34;35437;-86
2022/11/02 05:22:57;;;;;;;23.67;12.23;;;;;;;10.22;100.00;101047.09;5209763;34;34067;-86
2022/11/02 05:26:03;;;;;;;26.23;12.90;;;;;;;10.26;100.00;101055.69;5222698;34;34162;-87
2022/11/02 05:29:06;;;;;;;23.15;12.10;;;;;;;10.27;100.00;101054.75;5222152;34;34013;-86
2022/11/02 05:32:10;;;;;;;23.35;11.82;;;;;;;10.29;100.00;101060.78;5222078;34;33985;-90
2022/11/02 05:35:13;;;;;;;23.65;13.13;;;;;;;10.36;100.00;101063.72;5221791;34;34923;-90
2022/11/02 05:38:17;;;;;;;26.45;12.20;;;;;;;10.31;100.00;101058.81;5221762;34;34539;-90
2022/11/02 05:41:21;;;;;;;26.00;12.75;;;;;;;10.35;100.00;101062.84;5222265;34;34782;-86
2022/11/02 05:44:24;;;;;;;21.60;11.95;;;;;;;10.40;100.00;101070.47;5209531;34;32559;-87
2022/11/02 05:47:27;;;;;;;23.58;12.32;;;;;;;10.46;100.00;101077.06;5222173;34;34116;-86
2022/11/02 05:50:30;;;;;;;26.08;12.88;;;;;;;10.41;100.00;101073.00;5221735;34;33945;-86
2022/11/02 05:53:37;;;;;;;27.17;13.50;;;;;;;10.52;100.00;101076.41;5220873;34;34014;-86
2022/11/02 05:56:39;;;;;;;26.15;12.68;;;;;;;10.54;100.00;101074.41;5220595;34;34138;-86
2022/11/02 05:59:42;;;;;;;24.73;12.05;;;;;;;10.55;100.00;101068.84;5207641;34;32601;-86
2022/11/02 06:02:57;;;;;;;25.45;13.25;;;;;;;10.55;100.00;101063.47;5221123;34;35223;-86
2022/11/02 06:06:08;;;;;;;;;;;;;;;10.54;100.00;101064.47;5230126;34;33905;-86
2022/11/02 06:09:10;;;;;;;22.15;11.27;;;;;;;10.52;100.00;101058.41;5208889;34;34956;-86
2022/11/02 06:12:13;;;;;;;26.05;12.20;;;;;;;10.53;100.00;101068.19;5220731;34;34384;-86
2022/11/02 06:15:16;;;;;;;24.73;12.77;;;;;;;10.54;100.00;101058.25;5207181;34;34089;-86
2022/11/02 06:18:18;;;;;;;24.25;11.90;;;;;;;10.56;100.00;101051.72;5219976;34;33953;-86
2022/11/02 06:21:21;;;;;;;24.00;11.98;;;;;;;10.53;100.00;101060.13;5207479;34;32659;-86
2022/11/02 06:24:24;;;;;;;27.02;13.57;;;;;;;10.60;100.00;101052.22;5220110;34;33936;-86
2022/11/02 06:27:27;;;;;;;27.73;13.38;;;;;;;10.54;100.00;101055.56;5207240;34;32325;-86
2022/11/02 06:30:30;;;;;;;25.55;12.43;;;;;;;10.50;100.00;101063.13;5206970;34;32391;-86
2022/11/02 06:33:32;;;;;;;34.38;13.43;;;;;;;10.53;100.00;101060.13;5206462;34;33424;-86
2022/11/02 06:36:35;;;;;;;29.65;14.60;;;;;;;10.60;100.00;101050.37;5219691;34;35472;-86
2022/11/02 06:39:37;;;;;;;28.92;14.02;;;;;;;10.57;100.00;101063.31;5219620;34;34452;-86
2022/11/02 06:42:40;;;;;;;24.65;13.18;;;;;;;10.56;100.00;101059.78;5219505;34;34838;-86
2022/11/02 06:45:58;;;;;;;25.00;13.48;;;;;;;10.69;100.00;101053.09;5219896;34;34062;-86
2022/11/02 06:49:01;;;;;;;25.50;12.70;;;;;;;10.71;100.00;101062.72;5206763;34;33209;-86
2022/11/02 06:52:03;;;;;;;29.05;14.07;;;;;;;10.69;100.00;101059.31;5219808;34;34639;-86
2022/11/02 06:55:06;;;;;;;26.52;13.38;;;;;;;10.56;100.00;101064.31;5226951;34;33968;-86
2022/11/02 06:58:09;;;;;;;28.40;14.27;;;;;;;10.56;100.00;101086.72;5207294;34;270050;-86
2022/11/02 07:01:14;;;;;;;30.10;14.38;;;;;;;10.51;100.00;101080.97;5201324;34;34737;-86
2022/11/02 07:04:16;;;;;;;31.33;13.48;;;;;;;10.54;100.00;101093.25;5209568;34;34934;-86
2022/11/02 07:07:19;;;;;;;28.85;14.60;;;;;;;10.59;100.00;101086.38;5223113;34;33676;-86
2022/11/02 07:10:23;;;;;;;26.20;12.98;;;;;;;10.63;100.00;101089.59;5227250;34;34080;-86
2022/11/02 07:13:25;;;;;;;27.35;13.20;;;;;;;10.66;100.00;101087.41;5219035;34;34499;-86
2022/11/02 07:16:28;;;;;;;24.48;12.90;;;;;;;10.66;100.00;101086.59;5218456;34;33921;-86
2022/11/02 07:19:31;;;;;;;29.65;13.43;;;;;;;10.74;100.00;101083.09;5219357;34;33938;-86
2022/11/02 07:22:33;;;;;;;26.00;12.40;;;;;;;10.87;100.00;101084.31;5217361;34;33795;-86
2022/11/02 07:25:36;;;;;;;26.62;13.88;;;;;;;11.05;100.00;101084.19;5212748;34;33406;-86
2022/11/02 07:28:39;;;;;;;26.73;13.50;;;;;;;11.15;100.00;101076.00;5218192;34;33970;-86
2022/11/02 07:31:42;;;;;;;28.12;13.27;;;;;;;11.25;100.00;101083.94;5219525;34;33760;-90
2022/11/02 07:34:44;;;;;;;27.05;13.25;;;;;;;11.38;100.00;101080.75;5219001;34;34007;-90
2022/11/02 07:37:57;;;;;;;23.15;12.77;;;;;;;11.54;100.00;101084.31;5206892;34;32406;-90
2022/11/02 07:40:59;;;;;;;26.92;13.50;;;;;;;11.79;100.00;101077.09;5214711;34;33647;-86
2022/11/02 07:44:02;;;;;;;25.55;13.68;;;;;;;11.93;100.00;101082.84;5217250;34;34352;-86
2022/11/02 07:47:06;;;;;;;25.95;13.27;;;;;;;12.03;100.00;101097.84;5218474;34;33924;-86
2022/11/02 07:50:09;;;;;;;26.70;13.65;;;;;;;12.17;100.00;101100.91;5216899;34;34257;-86
2022/11/02 07:53:12;;;;;;;25.12;13.32;;;;;;;12.34;100.00;101091.72;5218711;34;34501;-86
2022/11/02 07:56:15;;;;;;;25.52;12.93;;;;;;;12.52;100.00;101087.97;5217623;34;33791;-86
2022/11/02 07:59:17;;;;;;;24.35;12.63;;;;;;;12.67;100.00;101095.19;5219888;34;34076;-87
2022/11/02 08:02:20;;;;;;;24.37;12.32;;;;;;;12.78;100.00;101079.62;5206997;34;32294;-87
2022/11/02 08:05:24;;;;;;;23.58;13.30;;;;;;;12.91;100.00;101093.44;5218021;34;34775;-87
2022/11/02 08:08:27;;;;;;;23.95;12.57;;;;;;;13.14;100.00;101096.19;5217816;34;34477;-86
2022/11/02 08:11:30;;;;;;;24.42;12.73;;;;;;;13.32;100.00;101087.84;5202502;34;32831;-86
2022/11/02 08:14:32;;;;;;;23.33;13.30;;;;;;;13.49;100.00;101088.59;5207973;34;32574;-87
2022/11/02 08:17:35;;;;;;;22.67;12.35;;;;;;;13.68;100.00;101090.78;5219779;34;34720;-87
2022/11/02 08:20:38;;;;;;;24.55;13.52;;;;;;;13.62;100.00;101091.50;5217696;34;34665;-86
2022/11/02 08:23:40;;;;;;;23.70;12.45;;;;;;;13.35;100.00;101091.03;5204364;34;33436;-87
2022/11/02 08:26:43;;;;;;;23.30;12.85;;;;;;;13.35;100.00;101090.19;5216877;34;33621;-86
2022/11/02 08:29:48;;;;;;;21.45;12.63;;;;;;;13.33;100.00;101089.50;5214839;34;35031;-86
2022/11/02 08:32:51;;;;;;;25.00;13.10;;;;;;;13.30;100.00;101089.88;5205256;34;33310;-86
2022/11/02 08:36:03;;;;;;;23.73;11.90;;;;;;;13.27;100.00;101090.22;5213755;34;33699;-86
2022/11/02 08:39:06;;;;;;;22.65;12.77;;;;;;;13.53;100.00;101089.91;5207232;34;33317;-86
2022/11/02 08:42:09;;;;;;;24.65;13.43;;;;;;;13.79;100.00;101090.38;5220245;34;34593;-86
2022/11/02 08:45:11;;;;;;;26.73;13.48;;;;;;;14.21;100.00;101094.37;5208645;34;32563;-87
2022/11/02 08:48:14;;;;;;;24.27;12.60;;;;;;;14.14;100.00;101095.31;5231713;34;33996;-86
2022/11/02 08:51:17;;;;;;;22.27;12.82;;;;;;;14.06;100.00;101090.81;5219736;34;34203;-86
2022/11/02 08:54:20;;;;;;;22.25;12.90;;;;;;;13.97;100.00;101092.75;5216178;34;34705;-86
2022/11/02 08:57:22;;;;;;;20.48;12.10;;;;;;;13.67;100.00;101086.41;5217348;34;33696;-86
2022/11/02 09:00:27;;;;;;;23.87;12.70;;;;;;;13.60;100.00;101090.84;5225588;34;32880;-86
2022/11/02 09:03:30;;;;;;;27.83;13.20;;;;;;;13.71;100.00;101085.00;5209085;34;32634;-87
2022/11/02 09:06:33;;;;;;;27.13;13.43;;;;;;;14.15;100.00;101081.59;5224726;34;34833;-86
2022/11/02 09:09:36;;;;;;;25.23;12.57;;;;;;;14.73;100.00;101085.41;5220604;34;34471;-86
2022/11/02 09:12:39;;;;;;;23.85;13.77;;;;;;;15.25;100.00;101071.88;5218397;34;34308;-86
2022/11/02 09:15:41;;;;;;;23.38;13.30;;;;;;;15.36;97.95;101058.62;5219856;34;34008;-86
2022/11/02 09:18:44;;;;;;;24.12;12.52;;;;;;;15.57;97.66;101068.66;5219515;34;34065;-86
2022/11/02 09:21:50;;;;;;;23.33;12.98;;;;;;;15.78;99.39;101065.13;5219258;34;33970;-87
2022/11/02 09:24:53;;;;;;;21.48;12.27;;;;;;;15.88;96.47;101064.78;5218485;34;33989;-86
2022/11/02 09:27:56;;;;;;;23.70;13.25;;;;;;;16.29;96.83;101062.19;5220356;34;34679;-87
2022/11/02 09:30:59;;;;;;;22.10;12.63;;;;;;;16.69;93.94;101064.28;5207145;34;32556;-87
2022/11/02 09:34:02;;;;;;;22.85;12.32;;;;;;;16.85;89.65;101061.28;5209591;34;34294;-86
2022/11/02 09:37:05;;;;;;;21.37;12.30;;;;;;;16.60;90.34;101063.63;5220072;34;33936;-86
2022/11/02 09:40:10;;;;;;;24.50;12.70;;;;;;;16.48;90.37;101068.78;5218871;34;34009;-86
2022/11/02 09:43:38;;;;;;;23.62;12.40;;;;;;;16.48;92.58;101063.34;5221253;34;35482;-90
2022/11/02 09:46:43;;;;;;;23.35;13.07;;;;;;;16.80;90.24;101057.50;5218485;34;34669;-87
2022/11/02 09:49:46;;;;;;;26.70;12.75;;;;;;;16.93;87.73;101054.81;5218339;34;33599;-87
2022/11/02 09:52:57;;;;;;;22.17;12.73;;;;;;;16.87;89.92;101053.75;5217878;34;33663;-86
2022/11/02 09:56:04;;;;;;;24.63;13.18;;;;;;;16.94;90.80;101061.94;5216265;34;33989;-87
2022/11/02 09:59:15;;;;;;;19.73;12.25;;;;;;;17.06;87.91;101060.31;5212056;34;34069;-86
2022/11/02 10:02:49;;;;;;;22.73;12.18;;;;;;;17.32;87.20;101056.00;5207442;34;33218;-86
2022/11/02 10:05:58;;;;;;;20.25;12.20;;;;;;;17.34;86.27;101045.72;5219289;34;34463;-87
2022/11/02 10:09:12;;;;;;;23.35;12.52;;;;;;;17.38;86.02;101053.28;5206319;34;33554;-86
2022/11/02 10:12:25;;;;;;;21.25;12.63;;;;;;;17.47;85.61;101047.66;5219525;34;33626;-87
2022/11/02 10:15:42;;;;;;;24.90;12.32;;;;;;;17.53;84.68;101044.09;5218891;34;33975;-86
2022/11/02 10:18:49;;;;;;;21.63;11.73;;;;;;;17.71;84.92;101054.37;5221818;34;33871;-87
2022/11/02 10:21:57;;;;;;;23.90;12.45;;;;;;;18.25;81.53;101046.03;5220172;34;33942;-86
2022/11/02 10:25:04;;;;;;;22.87;12.55;;;;;;;18.42;81.59;101040.94;5219002;34;34619;-87
2022/11/02 10:28:30;;;;;;;23.83;12.85;;;;;;;18.51;79.00;101050.56;5220313;34;35533;-90
2022/11/02 10:31:33;;;;;;;24.83;11.82;;;;;;;18.79;77.74;101036.66;5219477;34;35047;-86
2022/11/02 10:34:36;;;;;;;23.48;12.45;;;;;;;18.67;79.66;101041.09;5218345;34;33855;-88
2022/11/02 10:37:54;;;;;;;25.48;12.10;;;;;;;18.88;77.77;101047.34;5217907;34;34654;-87
2022/11/02 10:41:31;;;;;;;21.45;11.88;;;;;;;18.51;77.77;101044.28;5220806;34;35467;-87
2022/11/02 10:44:46;;;;;;;21.48;12.13;;;;;;;18.54;78.77;101033.78;5206536;34;33647;-87
2022/11/02 10:48:09;;;;;;;22.00;12.65;;;;;;;19.12;78.24;101030.19;5218217;34;34174;-87
2022/11/02 10:51:14;;;;;;;24.63;12.52;;;;;;;19.62;74.71;101024.00;5217831;34;33601;-87
2022/11/02 10:54:17;;;;;;;24.35;11.45;;;;;;;19.86;73.42;101023.22;5195656;34;33643;-87
2022/11/02 10:57:31;;;;;;;18.73;10.93;;;;;;;20.34;72.17;101021.72;5195837;34;32713;-87
2022/11/02 11:00:35;;;;;;;18.70;10.02;;;;;;;20.61;69.21;101028.56;5202774;34;33957;-87
2022/11/02 11:03:58;;;;;;;16.85;8.57;;;;;;;20.65;67.42;101028.97;5201436;34;33897;-87
2022/11/02 11:07:19;;;;;;;13.90;8.50;;;;;;;20.60;68.76;101028.81;5198371;34;34708;-87
2022/11/02 11:10:23;;;;;;;17.27;8.73;;;;;;;20.94;67.34;101026.50;5207708;34;34444;-87
2022/11/02 11:13:27;;;;;;;14.80;7.97;;;;;;;20.89;67.22;101029.94;5202102;34;35336;-87
2022/11/02 11:16:58;;;;;;;12.77;8.07;;;;;;;21.20;65.42;101031.59;5187956;34;33459;-87
2022/11/02 11:20:27;;;;;;;13.88;7.80;;;;;;;21.40;63.80;101025.88;5200512;34;33961;-87
2022/11/02 11:23:30;;;;;;;16.08;8.55;;;;;;;21.37;64.13;101036.47;5194803;34;34859;-87
2022/11/02 11:26:32;;;;;;;12.82;7.72;;;;;;;20.60;67.08;101031.56;5201029;34;34333;-87
2022/11/02 11:29:38;;;;;;;14.25;8.32;;;;;;;20.28;69.26;101031.66;5201728;34;33958;-87
2022/11/02 11:32:46;;;;;;;16.65;8.32;;;;;;;20.28;68.82;101028.91;5202082;34;33858;-87
2022/11/02 11:35:50;;;;;;;14.55;7.85;;;;;;;19.77;70.61;101030.00;5188547;34;32247;-87
2022/11/02 11:38:57;;;;;;;15.93;8.48;;;;;;;19.43;72.12;101037.59;5189148;34;32762;-87
2022/11/02 11:42:02;;;;;;;15.80;9.27;;;;;;;19.40;73.69;101037.19;5200979;34;34099;-86
2022/11/02 11:45:26;;;;;;;14.82;8.45;;;;;;;19.51;72.51;101036.50;5188432;34;33825;-87
2022/11/02 11:48:39;;;;;;;15.70;8.60;;;;;;;18.98;75.43;101031.31;5197735;34;34193;-87
2022/11/02 11:51:43;;;;;;;18.77;9.27;;;;;;;18.82;76.62;101040.84;5181993;34;31089;-87
2022/11/02 11:54:54;;;;;;;14.45;8.95;;;;;;;18.71;77.33;101034.13;5195026;34;32474;-91
2022/11/02 11:58:33;;;;;;;19.80;9.40;;;;;;;18.46;77.79;101033.19;5211937;34;34543;-87
2022/11/02 12:01:39;;;;;;;16.00;8.85;;;;;;;18.69;77.59;101036.25;5210303;34;32914;-87
2022/11/02 12:04:42;;;;;;;13.75;8.40;;;;;;;19.15;75.74;101027.03;5210282;34;33652;-87
2022/11/02 12:08:06;;;;;;;13.65;7.43;;;;;;;21.95;66.42;101002.84;5195339;34;32760;-87
2022/11/02 12:11:39;;;;;;;13.60;8.05;;;;;;;22.42;59.70;101000.09;5209147;34;34016;-87
2022/11/02 12:14:52;;;;;;;17.27;7.85;;;;;;;23.42;57.38;100992.47;5210549;34;34558;-87
2022/11/02 12:18:15;;;;;;;11.02;7.00;;;;;;;22.38;58.45;100994.28;5209001;34;34358;-87
2022/11/02 12:21:24;;;;;;;12.50;7.25;;;;;;;21.62;61.86;100989.72;5208315;34;33997;-87
2022/11/02 12:24:27;;;;;;;;;;;;;;;20.95;63.89;100987.13;5210065;34;33865;-87
2022/11/02 12:27:50;;;;;;;10.75;7.32;;;;;;;20.85;65.57;100982.19;5198347;34;34959;-87
2022/11/02 12:31:17;;;;;;;13.40;7.40;;;;;;;20.71;65.72;100976.06;5210353;34;33585;-87
2022/11/02 12:34:38;;;;;;;11.57;7.35;;;;;;;20.54;66.91;100975.03;5219366;34;33696;-87
2022/11/02 12:38:03;;;;;;;11.15;6.90;;;;;;;20.37;66.73;100972.03;5210199;34;34595;-87
2022/11/02 12:41:11;;;;;;;11.07;6.65;;;;;;;20.51;66.08;100964.50;5210102;34;34443;-87
2022/11/02 12:44:29;;;;;;;12.73;7.05;;;;;;;20.51;66.11;100968.06;5209529;34;34038;-87
2022/11/02 12:47:48;;;;;;;11.82;6.70;;;;;;;20.45;66.23;100963.53;5204253;34;33836;-87
2022/11/02 12:50:50;;;;;;;;;;;;;;;20.41;66.54;100965.03;5220442;34;34221;-87
2022/11/02 12:54:20;;;;;;;15.80;7.00;;;;;;;20.28;66.79;100962.47;5194594;34;32276;-87
2022/11/02 12:57:27;;;;;;;11.93;6.87;;;;;;;20.19;67.86;100966.56;5208549;34;34859;-86
2022/11/02 13:00:35;;;;;;;13.18;6.65;;;;;;;20.38;66.97;100960.00;5212478;34;33598;-91
2022/11/02 13:04:17;;;;;;;12.40;6.80;;;;;;;20.46;66.74;100959.72;5198359;34;33527;-91
2022/11/02 13:07:29;;;;;;;10.32;6.57;;;;;;;20.46;68.08;100967.91;5196885;34;32277;-87
2022/11/02 13:10:42;;;;;;;11.02;6.25;;;;;;;20.32;66.22;100960.94;5211385;34;33386;-87
2022/11/02 13:13:49;;;;;;;11.07;6.30;;;;;;;20.20;66.26;100957.28;5211274;34;33571;-87
2022/11/02 13:17:17;;;;;;;10.60;6.70;;;;;;;19.99;67.28;100961.28;5211854;34;34940;-87
2022/11/02 13:20:26;;;;;;;11.63;6.40;;;;;;;19.94;68.28;100948.28;5212400;34;34118;-87
2022/11/02 13:23:32;;;;;;;10.65;6.07;;;;;;;19.41;69.32;100946.84;5203399;34;32838;-86
2022/11/02 13:26:41;;;;;;;12.73;6.05;;;;;;;19.35;70.35;100946.91;5206744;34;32630;-87
2022/11/02 13:29:49;;;;;;;10.65;6.25;;;;;;;19.07;71.04;100950.91;5225088;34;33902;-86
2022/11/02 13:33:16;;;;;;;10.02;6.25;;;;;;;18.89;72.85;100948.03;5223998;34;33876;-87
2022/11/02 13:36:19;;;;;;;13.23;5.53;;;;;;;18.73;72.99;100958.41;5221198;34;34061;-86
2022/11/02 13:39:34;;;;;;;11.57;5.57;;;;;;;18.64;70.87;100959.69;5207023;34;33670;-91
2022/11/02 13:43:13;;;;;;;11.40;5.97;;;;;;;18.57;70.45;100958.87;5220580;34;34360;-87
2022/11/02 13:46:19;;;;;;;9.27;5.40;;;;;;;18.38;72.02;100959.81;5220370;34;34540;-86
2022/11/02 13:49:30;;;;;;;8.13;4.50;;;;;;;18.11;72.26;100965.34;5220542;34;33997;-87
2022/11/02 13:52:41;;;;;;;8.35;4.97;;;;;;;18.07;70.70;100966.78;5219960;34;33896;-87
2022/11/02 13:55:51;;;;;;;10.13;4.82;;;;;;;17.98;72.41;100962.63;5219933;34;34046;-86
2022/11/02 13:59:03;;;;;;;8.57;4.60;;;;;;;17.86;73.89;100968.72;5220161;34;33923;-87
2022/11/02 14:02:13;;;;;;;7.53;3.62;;;;;;;17.76;71.06;100979.19;5219376;34;33966;-87
2022/11/02 14:06:05;;;;;;;6.55;3.45;;;;;;;17.69;66.52;100968.25;5218285;34;32576;-87
2022/11/02 14:09:10;;;;;;;5.50;3.30;;;;;;;17.55;65.80;100980.22;5211379;34;34153;-87
2022/11/02 14:12:21;;;;;;;6.78;3.30;;;;;;;17.48;68.27;100978.53;5218997;34;34045;-87
2022/11/02 14:15:24;;;;;;;6.87;3.12;;;;;;;17.43;67.26;100979.16;5206089;34;34123;-91
2022/11/02 14:18:29;;;;;;;6.28;3.33;;;;;;;17.33;67.81;100976.84;5219254;34;34058;-88
2022/11/02 14:21:41;;;;;;;8.70;3.55;;;;;;;17.19;67.83;100984.16;5218480;34;33911;-87
2022/11/02 14:24:44;;;;;;;4.72;3.60;;;;;;;17.19;69.70;100988.75;5209342;34;32575;-87
2022/11/02 14:27:46;;;;;;;7.82;3.90;;;;;;;17.07;69.32;100983.09;5226828;34;34940;-86
2022/11/02 14:31:16;;;;;;;8.80;4.00;;;;;;;17.00;69.93;100976.81;5222896;34;34790;-86
2022/11/02 14:34:48;;;;;;;8.95;4.18;;;;;;;16.97;69.26;100975.31;5213345;34;33517;-86
2022/11/02 14:37:55;;;;;;;6.32;3.80;;;;;;;16.90;72.36;100979.91;5217571;34;34303;-87
2022/11/02 14:41:20;;;;;;;6.07;3.90;;;;;;;16.86;72.55;100975.09;5218123;34;33752;-88
2022/11/02 14:44:49;;;;;;;7.93;4.20;;;;;;;16.93;72.91;100979.47;5223170;34;34204;-86
2022/11/02 14:48:01;;;;;;;12.40;4.57;;;;;;;16.80;74.93;100990.34;5223026;34;33965;-86
2022/11/02 14:51:15;;;;;;;8.57;4.45;;;;;;;16.65;75.85;100992.34;5219132;34;34426;-86
2022/11/02 14:54:19;;;;;;;8.30;4.15;;;;;;;16.57;78.32;100992.50;5219029;34;34816;-88
2022/11/02 14:57:50;;;;;;;9.68;4.18;;;;;;;16.58;77.22;100986.84;5218400;34;33692;-87
2022/11/02 15:00:57;;;;;;;8.93;4.30;;;;;;;16.55;77.77;100985.41;5217816;34;34944;-87
2022/11/02 15:04:06;;;;;;;8.80;4.40;;;;;;;16.51;78.48;100986.84;5219706;34;34742;-86
2022/11/02 15:07:19;;;;;;;7.85;4.53;;;;;;;16.43;81.04;100983.44;5219307;34;33807;-85
2022/11/02 15:10:29;;;;;;;8.77;4.90;;;;;;;16.31;81.46;100988.63;5206151;34;32661;-87
2022/11/02 15:13:35;;;;;;;10.38;5.57;;;;;;;16.18;82.74;100983.13;5220004;34;33854;-87
2022/11/02 15:16:40;;;;;;;9.43;5.35;;;;;;;16.08;83.67;100994.31;5207771;34;32667;-87
2022/11/02 15:19:48;;;;;;;10.13;5.37;;;;;;;15.91;85.47;100999.22;5219141;34;34426;-86
2022/11/02 15:22:55;;;;;;;8.00;4.37;;;;;;;15.82;85.57;100989.53;5218489;34;34555;-89
2022/11/02 15:25:59;;;;;;;8.48;4.43;;;;;;;15.70;86.05;100996.53;5205903;34;32236;-86
2022/11/02 15:29:04;;;;;;;8.48;4.82;;;;;;;15.60;86.46;100997.69;5205975;34;33395;-87
2022/11/02 15:32:16;;;;;;;7.60;4.55;;;;;;;15.51;88.44;101007.00;5218067;34;33548;-87
2022/11/02 15:35:30;;;;;;;10.63;4.40;;;;;;;15.39;89.70;101003.97;5214717;34;33898;-87
2022/11/02 15:38:33;;;;;;;8.00;4.43;;;;;;;15.28;90.54;101007.22;5214773;34;34805;-87
2022/11/02 15:42:01;;;;;;;6.55;4.43;;;;;;;15.15;91.10;101005.22;5218753;34;34410;-86
2022/11/02 15:45:11;;;;;;;6.97;4.28;;;;;;;15.04;92.30;101008.41;5206171;34;32619;-87
2022/11/02 15:49:05;;;;;;;7.93;4.62;;;;;;;15.00;91.26;101019.81;5218831;34;33634;-87
2022/11/02 15:52:40;;;;;;;7.53;5.10;;;;;;;14.90;92.55;101015.56;5217936;34;34408;-87
2022/11/02 15:56:24;;;;;;;8.38;5.18;;;;;;;14.81;93.62;101015.88;5226480;34;34613;-87
2022/11/02 16:00:02;;;;;;;8.15;5.00;;;;;;;14.68;94.29;101006.53;5206300;34;32202;-87
2022/11/02 16:03:10;;;;;;;8.68;5.28;;;;;;;14.58;96.57;101013.28;5218047;34;33487;-87
2022/11/02 16:06:13;;;;;;;13.52;6.53;;;;;;;14.45;97.59;101012.03;5218380;34;33774;-87
2022/11/02 16:09:33;;;;;;;11.95;6.47;;;;;;;14.35;97.99;101016.06;5205325;34;32827;-87
2022/11/02 16:12:35;;;;;;;12.82;6.57;;;;;;;14.28;98.49;101016.81;5205449;34;32954;-87
2022/11/02 16:15:41;;;;;;;9.65;5.57;;;;;;;14.17;99.44;101022.69;5222308;34;34862;-87
2022/11/02 16:18:49;;;;;;;13.73;6.25;;;;;;;14.06;100.00;101018.53;5220644;34;35136;-87
2022/11/02 16:21:52;;;;;;;11.33;6.47;;;;;;;13.98;100.00;101015.06;5205615;34;33636;-87
2022/11/02 16:25:10;;;;;;;12.93;6.25;;;;;;;13.90;100.00;101016.03;5214507;34;32355;-87
2022/11/02 16:28:25;;;;;;;10.75;5.97;;;;;;;13.82;100.00;101019.63;5219833;34;34300;-86
2022/11/02 16:31:31;;;;;;;15.43;6.35;;;;;;;13.74;100.00;101017.00;5218165;34;34198;-86
2022/11/02 16:34:35;;;;;;;11.45;5.90;;;;;;;13.69;100.00;101022.12;5220088;34;33540;-87
2022/11/02 16:37:39;;;;;;;10.25;6.60;;;;;;;13.61;100.00;101025.75;5226250;34;34273;-87
2022/11/02 16:40:43;;;;;;;12.07;6.47;;;;;;;13.53;100.00;101027.69;5228436;34;35470;-87
2022/11/02 16:43:48;;;;;;;11.90;6.40;;;;;;;13.50;100.00;101036.16;5208112;34;32793;-87
2022/11/02 16:46:57;;;;;;;11.23;6.53;;;;;;;13.46;100.00;101034.84;5221226;34;34115;-86
2022/11/02 16:50:00;;;;;;;10.65;6.03;;;;;;;13.40;100.00;101047.22;5207741;34;32666;-87
2022/11/02 16:53:02;;;;;;;12.77;6.72;;;;;;;13.33;100.00;101043.53;5220386;34;34029;-87
2022/11/02 16:56:28;;;;;;;14.00;7.65;;;;;;;13.27;100.00;101047.78;5220872;34;34071;-86
2022/11/02 16:59:31;;;;;;;14.60;7.28;;;;;;;13.21;100.00;101053.87;5220759;34;34114;-87
